Time;durP1;ratioP1;P1;durP2;ratioP2;P2;SDS_P1;SDS_P2;PMS_P1;PMS_P2;Temp;Humidity;BMP_temperature;BMP_pressure;BME280_temperature;BME280_humidity;BME280_pressure;Samples;Min_cycle;Max_cycle;Signal;HPM_P1;HPM_P2
2023/06/21 00:00:31;;;;;;;13.25;12.15;;;;;;;14.72;100.00;96445.22;4945798;28;20121;-85
2023/06/21 00:03:00;;;;;;;13.55;12.45;;;;;;;14.55;100.00;96439.16;4962409;28;20023;-86
2023/06/21 00:05:26;;;;;;;13.10;12.05;;;;;;;14.55;100.00;96439.16;4945690;28;20034;-85
2023/06/21 00:07:53;;;;;;;12.57;11.43;;;;;;;14.45;100.00;96451.50;4946360;28;20066;-87
2023/06/21 00:10:23;;;;;;;13.90;12.77;;;;;;;14.47;100.00;96477.41;4962421;28;20027;-84
2023/06/21 00:12:52;;;;;;;14.93;13.60;;;;;;;14.40;100.00;96481.63;4961373;28;20031;-85
2023/06/21 00:15:18;;;;;;;13.20;12.02;;;;;;;14.63;100.00;96482.69;4963395;28;20031;-88
2023/06/21 00:17:44;;;;;;;13.65;12.25;;;;;;;14.48;100.00;96474.63;4945097;28;20035;-85
2023/06/21 00:20:10;;;;;;;16.65;13.05;;;;;;;14.53;100.00;96466.38;4942543;29;20564;-86
2023/06/21 00:22:40;;;;;;;13.27;11.70;;;;;;;14.51;100.00;96452.69;4958533;28;20110;-85
2023/06/21 00:25:07;;;;;;;13.98;11.90;;;;;;;14.49;100.00;96450.22;4961311;28;20034;-86
2023/06/21 00:27:34;;;;;;;12.75;11.65;;;;;;;14.38;100.00;96452.28;4962608;28;20038;-85
2023/06/21 00:30:00;;;;;;;13.27;12.07;;;;;;;14.43;100.00;96450.03;4962612;28;20634;-91
2023/06/21 00:32:25;;;;;;;13.73;12.73;;;;;;;14.32;100.00;96455.50;4963744;28;20057;-88
2023/06/21 00:34:50;;;;;;;13.15;12.02;;;;;;;14.26;100.00;96469.94;4961820;28;20045;-89
2023/06/21 00:37:16;;;;;;;12.32;11.32;;;;;;;14.25;100.00;96484.75;4946262;28;20038;-84
2023/06/21 00:39:42;;;;;;;13.13;12.15;;;;;;;14.31;100.00;96492.97;4962127;28;20556;-85
2023/06/21 00:42:09;;;;;;;12.60;11.40;;;;;;;14.20;100.00;96484.44;4963074;28;20030;-88
2023/06/21 00:44:35;;;;;;;14.05;11.93;;;;;;;14.21;100.00;96483.47;4961855;28;20066;-88
2023/06/21 00:47:00;;;;;;;13.90;12.80;;;;;;;14.09;100.00;96471.69;4962674;28;20027;-86
2023/06/21 00:49:27;;;;;;;13.95;12.60;;;;;;;14.07;100.00;96478.81;4946886;28;20033;-87
2023/06/21 00:51:57;;;;;;;13.73;12.57;;;;;;;14.07;100.00;96485.81;4946643;28;20022;-92
2023/06/21 00:54:22;;;;;;;;;;;;;;;14.01;100.00;96486.44;4947919;28;20485;-85
2023/06/21 00:56:48;;;;;;;13.88;12.77;;;;;;;14.06;100.00;96497.22;4942359;29;19991;-87
2023/06/21 00:59:13;;;;;;;13.15;12.13;;;;;;;14.07;100.00;96481.41;4961151;28;20034;-85
2023/06/21 01:01:39;;;;;;;13.95;12.70;;;;;;;14.26;100.00;96480.38;4944703;28;20484;-86
2023/06/21 01:04:06;;;;;;;13.50;12.27;;;;;;;14.18;100.00;96462.94;4963206;28;20022;-87
2023/06/21 01:07:11;;;;;;;14.13;12.65;;;;;;;14.12;100.00;96453.13;4946434;28;20030;-92
2023/06/21 01:09:45;;;;;;;14.38;12.13;;;;;;;13.96;100.00;96471.28;4950608;28;20121;-92
2023/06/21 01:12:54;;;;;;;13.25;12.15;;;;;;;13.93;100.00;96479.41;4964005;28;20120;-90
2023/06/21 01:15:24;;;;;;;13.10;11.85;;;;;;;13.97;100.00;96511.13;4920634;28;20042;-89
2023/06/21 01:17:51;;;;;;;13.88;12.57;;;;;;;14.11;100.00;96498.38;4961387;28;20444;-90
2023/06/21 01:20:24;;;;;;;13.23;12.02;;;;;;;14.05;100.00;96482.56;4947892;28;20041;-92
2023/06/21 01:23:12;;;;;;;12.43;11.48;;;;;;;13.99;100.00;96457.13;4962573;28;20787;-89
2023/06/21 01:26:08;;;;;;;14.10;12.80;;;;;;;13.95;100.00;96461.81;4961268;28;20118;-89
2023/06/21 01:28:58;;;;;;;16.13;11.80;;;;;;;13.88;100.00;96454.75;4962984;28;20082;-88
2023/06/21 01:31:24;;;;;;;13.90;12.80;;;;;;;13.90;100.00;96463.25;4960330;28;20038;-87
2023/06/21 01:33:50;;;;;;;13.73;12.50;;;;;;;13.82;100.00;96469.22;4949210;28;20050;-87
2023/06/21 01:36:16;;;;;;;13.63;12.60;;;;;;;13.99;100.00;96477.97;4960400;28;20468;-87
2023/06/21 01:38:41;;;;;;;12.73;11.63;;;;;;;13.99;100.00;96467.53;4960148;28;20034;-86
2023/06/21 01:41:10;;;;;;;13.23;12.18;;;;;;;14.07;100.00;96455.38;4944747;28;20042;-86
2023/06/21 01:43:37;;;;;;;13.38;12.02;;;;;;;13.99;100.00;96431.88;4959204;28;20398;-87
2023/06/21 01:46:03;;;;;;;13.52;12.43;;;;;;;13.97;100.00;96436.41;4945497;28;20035;-88
2023/06/21 01:48:29;;;;;;;14.15;12.82;;;;;;;13.83;100.00;96452.63;4960663;28;20027;-87
2023/06/21 01:50:55;;;;;;;13.40;12.30;;;;;;;13.78;100.00;96470.50;4961927;28;20058;-89
2023/06/21 01:53:22;;;;;;;16.42;12.43;;;;;;;13.88;100.00;96492.03;4944045;28;20062;-86
2023/06/21 01:55:49;;;;;;;13.70;12.60;;;;;;;13.84;100.00;96498.53;4944174;28;20027;-86
2023/06/21 01:58:16;;;;;;;15.27;13.80;;;;;;;13.90;100.00;96500.50;4960519;28;20030;-87
2023/06/21 02:00:42;;;;;;;14.55;13.15;;;;;;;13.78;100.00;96491.31;4959584;28;20066;-87
2023/06/21 02:03:13;;;;;;;13.65;12.25;;;;;;;13.83;100.00;96489.09;4961928;28;20035;-84
2023/06/21 02:05:42;;;;;;;14.02;12.60;;;;;;;13.86;100.00;96483.56;4943508;28;20031;-85
2023/06/21 02:08:15;;;;;;;14.57;13.00;;;;;;;13.99;100.00;96484.00;4961477;28;20461;-84
2023/06/21 02:10:41;;;;;;;14.63;13.20;;;;;;;13.81;100.00;96485.81;4961124;28;20031;-91
2023/06/21 02:13:07;;;;;;;14.77;13.43;;;;;;;13.69;100.00;96487.03;4961941;28;20599;-89
2023/06/21 02:15:32;;;;;;;14.23;12.88;;;;;;;13.86;100.00;96512.22;4944301;28;20035;-85
2023/06/21 02:17:58;;;;;;;14.88;13.60;;;;;;;13.83;100.00;96504.72;4943923;28;20049;-88
2023/06/21 02:20:23;;;;;;;16.65;14.00;;;;;;;13.81;100.00;96511.03;4962274;28;20066;-90
2023/06/21 02:22:49;;;;;;;13.23;12.02;;;;;;;13.84;100.00;96510.75;4944296;28;20038;-87
2023/06/21 02:25:15;;;;;;;13.95;12.60;;;;;;;13.51;100.00;96494.88;4961677;28;20041;-87
2023/06/21 02:27:41;;;;;;;15.55;14.02;;;;;;;13.43;100.00;96512.19;4959726;28;20050;-87
2023/06/21 02:30:08;;;;;;;15.80;14.43;;;;;;;13.61;100.00;96531.25;4944573;28;20030;-86
2023/06/21 02:32:34;;;;;;;13.15;12.02;;;;;;;13.65;100.00;96519.53;4960135;28;20043;-88
2023/06/21 02:35:00;;;;;;;13.07;11.95;;;;;;;13.78;100.00;96519.97;4944153;28;20035;-85
2023/06/21 02:37:28;;;;;;;15.82;14.23;;;;;;;13.59;100.00;96502.72;4962821;28;20045;-89
2023/06/21 02:39:54;;;;;;;15.45;14.07;;;;;;;13.39;100.00;96511.66;4960349;28;20035;-87
2023/06/21 02:42:20;;;;;;;14.48;13.25;;;;;;;13.50;100.00;96528.84;4945339;28;20117;-86
2023/06/21 02:44:45;;;;;;;15.52;13.63;;;;;;;13.45;100.00;96542.28;4959387;28;20110;-87
2023/06/21 02:47:11;;;;;;;15.88;14.20;;;;;;;13.48;100.00;96560.25;4961712;28;20424;-85
2023/06/21 02:49:37;;;;;;;14.75;13.57;;;;;;;13.57;100.00;96558.53;4959408;28;20516;-87
2023/06/21 02:52:03;;;;;;;14.35;12.85;;;;;;;13.62;100.00;96558.88;4960271;28;20035;-87
2023/06/21 02:54:29;;;;;;;15.70;14.40;;;;;;;13.64;100.00;96531.75;4944522;28;20404;-88
2023/06/21 02:56:55;;;;;;;14.50;13.30;;;;;;;13.64;100.00;96533.53;4948353;28;20121;-88
2023/06/21 02:59:20;;;;;;;13.70;12.50;;;;;;;13.47;100.00;96529.97;4966999;28;20019;-89
2023/06/21 03:01:48;;;;;;;14.95;13.52;;;;;;;13.36;100.00;96526.75;4949221;28;20182;-91
2023/06/21 03:04:18;;;;;;;12.85;11.88;;;;;;;13.48;100.00;96536.00;4950462;28;20093;-90
2023/06/21 03:06:44;;;;;;;12.73;11.63;;;;;;;13.60;100.00;96540.00;4965113;28;20026;-87
2023/06/21 03:09:10;;;;;;;14.25;12.82;;;;;;;13.68;100.00;96534.84;4947092;28;20034;-85
2023/06/21 03:11:36;;;;;;;13.60;12.20;;;;;;;13.72;100.00;96523.19;4961992;28;20433;-87
2023/06/21 03:14:01;;;;;;;14.32;12.52;;;;;;;13.65;100.00;96516.94;4946845;28;20037;-85
2023/06/21 03:16:27;;;;;;;14.80;13.30;;;;;;;13.72;100.00;96531.00;4964415;28;20195;-89
2023/06/21 03:18:52;;;;;;;13.88;12.70;;;;;;;13.61;100.00;96532.03;4947649;28;20038;-89
2023/06/21 03:21:18;;;;;;;13.30;12.10;;;;;;;13.57;100.00;96551.53;4965423;28;20035;-89
2023/06/21 03:23:43;;;;;;;13.25;11.95;;;;;;;13.75;100.00;96559.34;4963767;28;20031;-89
2023/06/21 03:26:09;;;;;;;13.55;12.18;;;;;;;13.85;100.00;96551.44;4963734;28;20598;-89
2023/06/21 03:28:34;;;;;;;12.65;11.65;;;;;;;14.07;100.00;96524.88;4947220;28;20065;-86
2023/06/21 03:31:00;;;;;;;12.07;10.98;;;;;;;14.74;100.00;96469.34;4964098;28;20029;-85
2023/06/21 03:33:26;;;;;;;10.93;9.88;;;;;;;15.97;100.00;96185.25;4962196;28;20509;-85
2023/06/21 03:35:51;;;;;;;9.23;8.43;;;;;;;16.56;100.00;95684.13;4962361;28;20428;-84
2023/06/21 03:38:20;;;;;;;9.43;8.68;;;;;;;17.10;100.00;95466.22;4962882;28;20027;-83
2023/06/21 03:40:45;;;;;;;8.48;7.78;;;;;;;17.54;100.00;95373.97;4961829;28;20058;-83
2023/06/21 03:43:13;;;;;;;9.73;8.52;;;;;;;17.77;100.00;95314.94;4946540;28;20136;-83
2023/06/21 03:45:39;;;;;;;8.25;7.55;;;;;;;17.86;100.00;95268.31;4947344;28;20460;-86
2023/06/21 03:48:05;;;;;;;9.20;7.50;;;;;;;18.17;100.00;95236.91;4963668;28;20030;-84
2023/06/21 03:50:31;;;;;;;11.05;8.45;;;;;;;18.68;100.00;95212.41;4962039;28;20027;-83
2023/06/21 03:52:57;;;;;;;7.88;7.20;;;;;;;19.07;100.00;95185.78;4961787;28;20116;-83
2023/06/21 03:55:23;;;;;;;7.88;7.10;;;;;;;19.18;100.00;95174.56;4963003;28;20580;-82
2023/06/21 03:57:48;;;;;;;8.40;7.80;;;;;;;19.55;100.00;95182.50;4945294;28;20670;-83
2023/06/21 04:00:14;;;;;;;7.97;7.28;;;;;;;19.70;100.00;95172.41;4961870;28;20405;-83
2023/06/21 04:02:40;;;;;;;9.10;7.30;;;;;;;20.07;100.00;95166.03;4961956;28;20129;-83
2023/06/21 04:05:06;;;;;;;7.50;6.85;;;;;;;20.39;100.00;95141.09;4962043;28;20536;-83
2023/06/21 04:07:31;;;;;;;8.30;7.15;;;;;;;20.65;100.00;95131.97;4960958;28;20741;-85
2023/06/21 04:09:57;;;;;;;7.65;6.80;;;;;;;21.05;100.00;95124.16;4962006;28;20023;-84
2023/06/21 04:12:24;;;;;;;7.25;6.75;;;;;;;21.26;100.00;95114.88;4946300;28;20031;-84
2023/06/21 04:14:49;;;;;;;10.05;6.60;;;;;;;21.40;100.00;95100.41;4961953;28;20027;-84
2023/06/21 04:17:15;;;;;;;8.35;7.72;;;;;;;21.30;100.00;95106.28;4963624;28;20030;-83
2023/06/21 04:19:40;;;;;;;8.00;7.30;;;;;;;21.76;100.00;95105.34;4960980;28;20034;-78
2023/06/21 04:22:06;;;;;;;8.85;7.18;;;;;;;21.89;100.00;95106.91;4962912;28;20046;-77
2023/06/21 04:24:31;;;;;;;7.20;6.70;;;;;;;22.21;100.00;95097.44;4962297;28;20031;-79
2023/06/21 04:26:58;;;;;;;7.07;6.57;;;;;;;22.42;100.00;95104.63;4961382;28;20044;-79
2023/06/21 04:29:24;;;;;;;9.07;8.18;;;;;;;22.49;100.00;95101.84;4960755;28;20023;-77
2023/06/21 04:31:52;;;;;;;8.50;7.95;;;;;;;22.60;100.00;95096.47;4960888;28;20120;-76
2023/06/21 04:34:18;;;;;;;7.55;6.85;;;;;;;22.92;100.00;95103.84;4961640;28;20054;-77
2023/06/21 04:36:47;;;;;;;8.02;7.43;;;;;;;22.20;100.00;95105.59;4960471;28;20043;-77
2023/06/21 04:39:16;;;;;;;6.93;6.20;;;;;;;23.37;100.00;95104.44;4961564;28;20023;-77
2023/06/21 04:41:42;;;;;;;10.07;7.57;;;;;;;23.71;100.00;95107.75;4944678;28;20074;-80
2023/06/21 04:44:07;;;;;;;7.75;7.00;;;;;;;23.67;100.00;95108.47;4960831;28;20054;-81
2023/06/21 04:46:35;;;;;;;7.03;6.53;;;;;;;23.66;100.00;95105.06;4961865;28;20121;-79
2023/06/21 04:49:04;;;;;;;7.82;7.13;;;;;;;24.11;100.00;95104.72;4945048;28;20027;-78
2023/06/21 04:51:32;;;;;;;6.90;6.45;;;;;;;25.22;90.40;95100.25;4962684;28;20035;-79
2023/06/21 04:54:00;;;;;;;6.57;6.07;;;;;;;25.62;87.73;95087.16;4960331;28;20077;-79
2023/06/21 04:56:29;;;;;;;6.88;6.20;;;;;;;25.47;89.33;95095.06;4961145;28;20509;-79
2023/06/21 04:58:55;;;;;;;7.15;6.45;;;;;;;25.56;85.62;95085.56;4943958;28;20026;-77
2023/06/21 05:01:20;;;;;;;6.63;6.05;;;;;;;25.56;86.24;95085.56;4944741;28;20552;-79
2023/06/21 05:03:48;;;;;;;6.43;5.90;;;;;;;25.86;88.11;95084.84;4960343;28;20031;-80
2023/06/21 05:06:17;;;;;;;6.82;6.18;;;;;;;26.69;83.91;95086.25;4960282;28;20026;-79
2023/06/21 05:08:43;;;;;;;6.00;5.45;;;;;;;27.03;79.09;95089.16;4959074;28;20035;-80
2023/06/21 05:11:09;;;;;;;6.28;5.47;;;;;;;27.00;79.04;95072.94;4943836;28;20033;-78
2023/06/21 05:13:34;;;;;;;6.55;6.07;;;;;;;27.88;71.33;95073.13;4962348;28;20015;-79
2023/06/21 05:16:01;;;;;;;5.45;5.13;;;;;;;27.96;72.82;95078.69;4954995;28;20090;-79
2023/06/21 05:18:26;;;;;;;5.82;5.40;;;;;;;28.37;69.78;95089.06;4963726;28;20034;-79
2023/06/21 05:20:52;;;;;;;6.35;5.60;;;;;;;28.56;65.72;95073.97;4926925;28;20050;-79
2023/06/21 05:23:17;;;;;;;5.88;5.35;;;;;;;29.04;65.70;95078.34;4958384;28;20031;-79
2023/06/21 05:25:43;;;;;;;5.53;5.15;;;;;;;29.71;62.48;95082.66;4958718;28;20247;-78
2023/06/21 05:28:08;;;;;;;5.55;5.15;;;;;;;29.55;62.25;95078.59;4957910;28;20023;-79
2023/06/21 05:30:34;;;;;;;5.88;5.38;;;;;;;30.73;57.24;95079.28;4960032;28;20027;-78
2023/06/21 05:33:00;;;;;;;6.13;5.57;;;;;;;30.57;56.65;95073.41;4941617;28;20540;-78
2023/06/21 05:35:26;;;;;;;6.38;5.88;;;;;;;31.13;53.89;95067.09;4958685;28;20587;-78
2023/06/21 05:37:53;;;;;;;6.65;6.25;;;;;;;31.90;52.73;95075.22;4959146;28;20110;-78
2023/06/21 05:40:20;;;;;;;5.85;5.30;;;;;;;32.30;52.95;95075.09;4958376;28;20022;-78
2023/06/21 05:42:45;;;;;;;6.15;5.60;;;;;;;32.68;50.00;95064.84;4941991;28;20031;-76
2023/06/21 05:45:11;;;;;;;5.70;5.20;;;;;;;32.91;50.60;95064.81;4959466;28;20066;-77
2023/06/21 05:47:36;;;;;;;5.80;5.40;;;;;;;32.40;50.71;95074.06;4959882;28;20023;-78
2023/06/21 05:50:03;;;;;;;6.30;5.30;;;;;;;33.18;47.48;95075.38;4957764;28;20124;-78
2023/06/21 05:52:29;;;;;;;5.35;4.90;;;;;;;32.59;47.98;95063.22;4958526;28;20022;-78
2023/06/21 05:54:54;;;;;;;5.55;5.15;;;;;;;33.60;46.86;95063.19;4957494;28;20031;-77
2023/06/21 05:57:20;;;;;;;5.17;4.57;;;;;;;33.74;44.90;95062.00;4957991;28;20516;-77
2023/06/21 05:59:46;;;;;;;5.53;5.03;;;;;;;33.71;44.78;95070.69;4957826;28;20026;-79
2023/06/21 06:02:11;;;;;;;5.77;5.03;;;;;;;33.89;45.86;95066.91;4958168;28;20038;-78
2023/06/21 06:04:37;;;;;;;4.67;4.43;;;;;;;34.13;45.52;95065.69;4958020;28;20037;-79
2023/06/21 06:07:03;;;;;;;5.30;5.00;;;;;;;34.08;44.71;95065.81;4959126;28;20035;-77
2023/06/21 06:09:30;;;;;;;5.75;5.15;;;;;;;34.46;44.45;95069.47;4958005;28;20568;-77
2023/06/21 06:11:56;;;;;;;5.93;5.38;;;;;;;35.16;42.45;95066.34;4957496;28;20448;-78
2023/06/21 06:14:23;;;;;;;7.38;5.20;;;;;;;34.74;43.66;95065.34;4957961;28;20428;-76
2023/06/21 06:16:48;;;;;;;6.40;5.50;;;;;;;33.80;44.82;95058.06;4957714;28;20344;-76
2023/06/21 06:19:14;;;;;;;6.20;5.80;;;;;;;33.52;45.49;95072.03;4959162;28;20552;-76
2023/06/21 06:21:41;;;;;;;6.65;6.20;;;;;;;33.89;44.51;95069.59;4957275;28;20538;-77
2023/06/21 06:24:06;;;;;;;7.68;6.97;;;;;;;33.70;44.68;95062.91;4957577;28;20118;-78
2023/06/21 06:26:31;;;;;;;7.60;6.90;;;;;;;33.88;44.81;95059.94;4959293;28;20129;-79
2023/06/21 06:28:57;;;;;;;7.82;7.22;;;;;;;33.10;45.56;95057.34;4957318;28;20413;-78
2023/06/21 06:31:25;;;;;;;8.38;7.50;;;;;;;30.11;55.65;95061.84;4959038;28;20030;-78
2023/06/21 06:33:51;;;;;;;7.70;7.00;;;;;;;29.09;60.22;95061.50;4941213;28;20039;-78
2023/06/21 06:36:17;;;;;;;7.53;6.63;;;;;;;28.80;62.62;95060.75;4957831;28;20035;-77
2023/06/21 06:38:46;;;;;;;6.63;5.95;;;;;;;28.77;64.73;95056.75;4956737;28;20524;-78
2023/06/21 06:41:11;;;;;;;6.78;6.28;;;;;;;29.52;62.08;95047.13;4957777;28;20066;-78
2023/06/21 06:43:37;;;;;;;7.40;6.90;;;;;;;29.90;58.70;95049.84;4957261;28;20434;-78
2023/06/21 06:46:02;;;;;;;7.30;6.80;;;;;;;33.20;48.05;95043.63;4958579;28;20034;-79
2023/06/21 06:48:27;;;;;;;7.63;7.07;;;;;;;33.06;46.38;95046.41;4957922;28;20027;-79
2023/06/21 06:50:53;;;;;;;8.50;7.70;;;;;;;29.67;57.92;95040.78;4958266;28;20027;-79
2023/06/21 06:53:18;;;;;;;8.40;7.68;;;;;;;29.09;61.42;95042.81;4959461;28;20787;-78
2023/06/21 06:55:44;;;;;;;7.95;7.43;;;;;;;29.24;59.37;95038.13;4957845;28;20089;-78
2023/06/21 06:58:09;;;;;;;8.20;7.55;;;;;;;27.64;63.68;95044.50;4959286;28;20571;-74
2023/06/21 07:00:35;;;;;;;7.40;6.80;;;;;;;29.26;65.05;95049.31;4958289;28;20023;-78
2023/06/21 07:03:00;;;;;;;6.80;6.22;;;;;;;29.23;62.31;95046.38;4941082;28;20569;-76
2023/06/21 07:05:26;;;;;;;6.40;5.90;;;;;;;29.58;61.00;95045.16;4957577;28;20062;-78
2023/06/21 07:07:53;;;;;;;7.18;6.72;;;;;;;32.24;52.37;95052.19;4956913;28;20568;-78
2023/06/21 07:10:19;;;;;;;7.30;6.75;;;;;;;34.00;46.63;95042.41;4959427;28;20041;-78
2023/06/21 07:12:45;;;;;;;7.43;7.00;;;;;;;30.29;60.27;95045.75;4958027;28;20432;-78
2023/06/21 07:15:10;;;;;;;7.97;7.20;;;;;;;29.01;71.72;95048.78;4957801;28;20058;-77
2023/06/21 07:17:36;;;;;;;7.10;6.60;;;;;;;28.89;69.12;95045.69;4956508;28;20046;-78
2023/06/21 07:20:01;;;;;;;8.30;7.63;;;;;;;27.96;68.69;95048.56;4957365;28;20133;-78
2023/06/21 07:22:27;;;;;;;7.85;7.30;;;;;;;28.48;72.43;95043.38;4957254;28;20035;-79
2023/06/21 07:24:52;;;;;;;8.57;7.40;;;;;;;28.17;75.80;95045.50;4958247;28;20038;-78
2023/06/21 07:27:18;;;;;;;8.50;7.38;;;;;;;28.57;72.93;95035.59;4957840;28;20042;-76
2023/06/21 07:29:43;;;;;;;8.13;7.40;;;;;;;28.24;67.89;95034.53;4956248;28;20029;-78
2023/06/21 07:32:09;;;;;;;8.07;7.47;;;;;;;28.13;64.78;95033.00;4957637;28;20047;-79
2023/06/21 07:34:34;;;;;;;8.18;7.43;;;;;;;28.47;66.52;95035.69;4956390;28;20293;-79
2023/06/21 07:37:00;;;;;;;8.52;7.70;;;;;;;28.45;75.51;95027.19;4956898;28;20498;-78
2023/06/21 07:39:25;;;;;;;9.38;7.20;;;;;;;28.68;76.78;95035.22;4940783;28;20037;-78
2023/06/21 07:41:51;;;;;;;8.20;7.47;;;;;;;28.35;72.70;95027.25;4958580;28;20037;-76
2023/06/21 07:44:17;;;;;;;7.82;7.22;;;;;;;28.42;70.92;95031.16;4961977;28;20015;-77
2023/06/21 07:46:43;;;;;;;7.22;6.75;;;;;;;28.97;69.19;95029.06;4961345;28;20038;-77
2023/06/21 07:49:09;;;;;;;7.55;6.95;;;;;;;28.46;67.37;95026.06;4960854;28;20027;-78
2023/06/21 07:51:35;;;;;;;7.18;6.68;;;;;;;28.50;69.88;95038.59;4959871;28;20027;-76
2023/06/21 07:54:00;;;;;;;6.90;6.50;;;;;;;28.46;63.12;95028.75;4961820;28;20038;-77
2023/06/21 07:56:26;;;;;;;7.13;6.60;;;;;;;28.59;69.38;95031.56;4943797;28;20041;-75
2023/06/21 07:58:52;;;;;;;9.30;6.90;;;;;;;28.73;64.46;95026.41;4960080;28;20512;-78
2023/06/21 08:01:17;;;;;;;10.07;6.70;;;;;;;28.75;68.53;95030.38;4959913;28;20113;-75
2023/06/21 08:03:43;;;;;;;7.30;6.70;;;;;;;28.80;68.35;95026.06;4961291;28;20137;-74
2023/06/21 08:06:08;;;;;;;10.10;6.78;;;;;;;28.54;68.85;95034.28;4961583;28;20082;-75
2023/06/21 08:08:34;;;;;;;7.25;6.35;;;;;;;28.70;72.50;95035.75;4959613;28;20047;-76
2023/06/21 08:10:59;;;;;;;6.78;6.28;;;;;;;28.39;68.65;95023.72;4960669;28;20027;-79
2023/06/21 08:13:26;;;;;;;7.40;6.80;;;;;;;28.42;71.56;95036.50;4961047;28;20195;-77
2023/06/21 08:15:51;;;;;;;7.60;6.75;;;;;;;28.78;72.18;95031.66;4961945;28;20122;-77
2023/06/21 08:18:17;;;;;;;7.95;7.30;;;;;;;28.31;68.43;95028.88;4945719;28;20612;-74
2023/06/21 08:20:42;;;;;;;7.38;6.78;;;;;;;28.31;69.57;95028.88;4943805;28;20045;-75
2023/06/21 08:23:08;;;;;;;7.03;6.40;;;;;;;28.42;66.16;95027.72;4960748;28;20041;-75
2023/06/21 08:25:35;;;;;;;7.30;6.60;;;;;;;28.17;65.43;95026.84;4940875;28;20035;-75
2023/06/21 08:28:01;;;;;;;7.68;6.93;;;;;;;28.51;68.18;95023.38;4956835;28;20548;-75
2023/06/21 08:30:27;;;;;;;8.23;6.50;;;;;;;28.55;64.78;95014.53;4954165;28;20035;-76
2023/06/21 08:32:52;;;;;;;7.95;7.05;;;;;;;28.82;70.50;95018.56;4948362;28;20063;-75
2023/06/21 08:35:18;;;;;;;7.57;6.97;;;;;;;28.71;70.29;95020.53;4945761;28;20094;-76
2023/06/21 08:37:56;;;;;;;7.28;6.55;;;;;;;28.80;69.23;95010.06;4960860;28;20024;-76
2023/06/21 08:40:26;;;;;;;8.52;6.82;;;;;;;28.65;67.03;95014.47;4956523;28;20028;-75
2023/06/21 08:42:55;;;;;;;7.60;7.00;;;;;;;28.05;67.00;95005.09;4959186;28;20037;-78
2023/06/21 08:45:20;;;;;;;;;;;;;;;28.92;71.71;95015.78;4959147;28;20437;-76
2023/06/21 08:47:47;;;;;;;7.72;7.13;;;;;;;28.64;72.83;95007.50;4957834;28;19914;-78
2023/06/21 08:50:16;;;;;;;7.18;6.45;;;;;;;28.73;74.31;95007.72;4951744;28;20081;-75
2023/06/21 08:52:43;;;;;;;9.50;6.57;;;;;;;28.92;72.34;95003.25;4954048;28;20288;-78
2023/06/21 08:55:13;;;;;;;7.55;6.82;;;;;;;28.72;68.24;94998.94;4957421;28;20026;-78
2023/06/21 08:57:46;;;;;;;7.53;6.90;;;;;;;29.33;71.36;95006.25;4958472;28;20065;-76
2023/06/21 09:00:13;;;;;;;7.78;6.90;;;;;;;29.10;73.21;95005.16;4958677;28;20106;-78
2023/06/21 09:03:03;;;;;;;8.57;6.95;;;;;;;28.04;68.80;95008.00;4959207;28;20039;-75
2023/06/21 09:05:35;;;;;;;8.50;7.15;;;;;;;28.67;71.61;95009.63;4960010;28;20551;-76
2023/06/21 09:08:02;;;;;;;7.15;6.65;;;;;;;28.90;71.85;95010.72;4958970;28;20035;-78
2023/06/21 09:10:28;;;;;;;7.97;7.35;;;;;;;28.85;69.89;95010.00;4958742;28;20077;-77
2023/06/21 09:12:59;;;;;;;7.45;6.75;;;;;;;28.95;72.78;95012.56;4958371;28;20058;-78
2023/06/21 09:15:25;;;;;;;10.32;7.30;;;;;;;28.86;69.56;95008.91;4952740;28;21127;-79
2023/06/21 09:17:51;;;;;;;7.50;6.82;;;;;;;29.10;66.15;95007.84;4936273;28;20039;-75
2023/06/21 09:20:17;;;;;;;7.68;6.93;;;;;;;28.81;68.83;95011.63;4931922;28;20046;-78
2023/06/21 09:22:46;;;;;;;8.50;7.45;;;;;;;29.06;69.98;95009.47;4944197;28;20024;-77
2023/06/21 09:25:11;;;;;;;;;;;;;;;28.87;65.46;95005.16;4959327;28;20037;-75
2023/06/21 09:27:37;;;;;;;7.70;7.20;;;;;;;28.54;64.52;95002.28;4959587;28;19914;-76
2023/06/21 09:30:02;;;;;;;7.60;7.00;;;;;;;28.86;64.22;94992.91;4959786;28;20058;-78
2023/06/21 09:32:28;;;;;;;8.35;7.85;;;;;;;29.15;67.86;95001.66;4959820;28;20089;-75
2023/06/21 09:34:53;;;;;;;7.88;7.03;;;;;;;29.17;67.83;94999.47;4959560;28;20464;-76
2023/06/21 09:37:31;;;;;;;8.20;7.50;;;;;;;28.84;65.75;95001.19;4959836;28;20583;-76
2023/06/21 09:39:57;;;;;;;7.78;7.18;;;;;;;29.05;68.92;95001.75;4960440;28;20027;-76
2023/06/21 09:42:24;;;;;;;7.55;7.05;;;;;;;29.33;67.41;94997.44;4959276;28;20033;-77
2023/06/21 09:44:49;;;;;;;7.65;7.15;;;;;;;29.31;66.99;94992.41;4957146;28;20022;-75
2023/06/21 09:47:15;;;;;;;9.27;7.65;;;;;;;29.37;64.13;94983.25;4960294;28;20477;-77
2023/06/21 09:49:48;;;;;;;7.68;7.03;;;;;;;29.41;72.50;94984.22;4960941;28;20022;-76
2023/06/21 09:52:14;;;;;;;7.95;7.25;;;;;;;29.39;66.49;94978.41;4959711;28;20102;-77
2023/06/21 09:54:41;;;;;;;8.35;7.68;;;;;;;29.19;71.72;94978.63;4944023;28;20023;-79
2023/06/21 09:57:07;;;;;;;7.63;7.13;;;;;;;29.35;63.92;94977.38;4959057;28;20576;-77
2023/06/21 09:59:36;;;;;;;8.25;7.50;;;;;;;29.50;64.58;94977.19;4959378;28;20118;-78
2023/06/21 10:02:02;;;;;;;7.47;6.93;;;;;;;29.25;66.24;94972.97;4959006;28;20033;-79
2023/06/21 10:04:27;;;;;;;8.63;7.90;;;;;;;29.21;64.94;94971.94;4942408;28;20027;-74
2023/06/21 10:06:54;;;;;;;7.72;7.03;;;;;;;29.27;60.08;94975.38;4958702;28;20085;-76
2023/06/21 10:09:20;;;;;;;7.68;6.97;;;;;;;28.79;58.56;94982.59;4960209;28;20027;-76
2023/06/21 10:11:46;;;;;;;7.60;6.82;;;;;;;29.01;58.69;94984.72;4960146;28;20085;-75
2023/06/21 10:14:22;;;;;;;8.18;7.53;;;;;;;29.24;66.39;94989.25;4958898;28;21027;-76
2023/06/21 10:16:53;;;;;;;7.68;6.85;;;;;;;29.23;64.42;94972.44;4947686;28;20030;-75
2023/06/21 10:19:22;;;;;;;7.45;6.80;;;;;;;29.32;62.21;94985.16;4958538;28;20023;-75
2023/06/21 10:21:58;;;;;;;7.45;6.88;;;;;;;29.13;56.32;94993.13;4959565;28;20030;-76
2023/06/21 10:24:26;;;;;;;7.00;6.50;;;;;;;29.25;57.55;94982.88;4943216;28;20050;-76
2023/06/21 10:26:52;;;;;;;7.30;6.63;;;;;;;28.99;57.54;94987.69;4959106;28;20143;-76
2023/06/21 10:29:18;;;;;;;7.45;6.85;;;;;;;29.15;60.17;94989.09;4943459;28;20039;-76
2023/06/21 10:31:44;;;;;;;7.45;6.78;;;;;;;28.40;57.89;94984.56;4958805;28;20030;-77
2023/06/21 10:34:12;;;;;;;7.05;6.60;;;;;;;29.02;61.92;94994.34;4959605;28;20047;-79
2023/06/21 10:36:39;;;;;;;8.15;7.45;;;;;;;29.17;66.38;94988.81;4958308;28;20031;-79
2023/06/21 10:39:09;;;;;;;7.53;6.93;;;;;;;29.43;66.06;94984.75;4959269;28;20061;-79
2023/06/21 10:41:35;;;;;;;7.63;7.00;;;;;;;29.18;59.16;94983.19;4959082;28;20027;-81
2023/06/21 10:44:02;;;;;;;7.22;6.72;;;;;;;28.52;55.41;94979.63;4958934;28;20026;-84
2023/06/21 10:46:28;;;;;;;7.75;7.05;;;;;;;28.80;59.02;94983.38;4959713;28;20038;-81
2023/06/21 10:48:55;;;;;;;7.45;6.82;;;;;;;29.19;64.61;94991.97;4958549;28;20386;-77
2023/06/21 10:51:21;;;;;;;7.15;6.60;;;;;;;29.15;58.39;94981.09;4947144;28;20070;-82
2023/06/21 10:53:47;;;;;;;7.70;7.00;;;;;;;28.98;59.31;94977.28;4943831;28;20480;-79
2023/06/21 10:56:16;;;;;;;7.57;6.97;;;;;;;28.99;58.42;94976.22;4959235;28;20039;-78
2023/06/21 10:58:42;;;;;;;7.32;6.72;;;;;;;29.16;60.91;94968.53;4942611;28;20035;-77
2023/06/21 11:01:07;;;;;;;10.73;7.25;;;;;;;29.50;61.01;94976.41;4958720;28;20888;-76
2023/06/21 11:03:32;;;;;;;8.32;6.90;;;;;;;29.38;57.82;94968.78;4960405;28;20027;-75
2023/06/21 11:06:20;;;;;;;7.78;7.18;;;;;;;28.55;55.35;94976.41;4959405;28;20031;-74
2023/06/21 11:08:46;;;;;;;7.30;6.80;;;;;;;28.24;58.81;94978.56;4958769;28;20035;-74
2023/06/21 11:11:30;;;;;;;7.28;6.78;;;;;;;28.80;58.69;94978.06;4958381;28;20047;-80
2023/06/21 11:13:56;;;;;;;7.10;6.60;;;;;;;28.98;60.71;94977.28;4942386;28;20209;-80
2023/06/21 11:16:25;;;;;;;8.40;7.60;;;;;;;28.82;56.92;94966.00;4944131;28;20121;-80
2023/06/21 11:18:59;;;;;;;8.02;7.38;;;;;;;28.99;58.55;94976.22;4945737;28;20045;-75
2023/06/21 11:21:47;;;;;;;7.30;6.70;;;;;;;28.88;58.83;94974.75;4962907;28;20408;-79
2023/06/21 11:24:18;;;;;;;8.00;7.20;;;;;;;29.28;60.68;94974.28;4957714;28;20026;-75